createdAt,value
2018-09-09T00:03:51.455Z,100678.56
2018-09-09T00:08:54.948Z,100672.55
2018-09-09T00:13:58.526Z,100669.84
2018-09-09T00:19:02.000Z,100667.89
2018-09-09T00:24:05.622Z,100669.06
2018-09-09T00:29:09.073Z,100657.56
2018-09-09T00:34:12.685Z,100655.61
2018-09-09T00:39:16.154Z,100638.48
2018-09-09T00:44:19.972Z,100640.77
2018-09-09T00:49:29.030Z,100649.71
2018-09-09T00:54:32.738Z,100670.55
2018-09-09T00:59:36.342Z,100666.23
2018-09-09T01:04:40.120Z,100656.77
2018-09-09T01:09:43.691Z,100654.66
2018-09-09T01:14:47.368Z,100661.60
2018-09-09T01:19:50.841Z,100658.83
2018-09-09T01:24:54.328Z,100657.84
2018-09-09T01:29:58.032Z,100654.28
2018-09-09T01:35:01.727Z,100651.91
2018-09-09T01:40:05.242Z,100655.06
2018-09-09T01:45:08.741Z,100642.82
2018-09-09T01:50:12.395Z,100635.53
2018-09-09T01:55:15.933Z,100640.67
2018-09-09T02:00:19.433Z,100648.03
2018-09-09T02:05:22.896Z,100652.45
2018-09-09T02:10:26.358Z,100641.00
2018-09-09T02:15:29.829Z,100655.23
2018-09-09T02:20:33.304Z,100654.67
2018-09-09T02:25:36.795Z,100662.62
2018-09-09T02:30:40.350Z,100668.78
2018-09-09T02:35:43.905Z,100662.02
2018-09-09T02:40:47.388Z,100663.66
2018-09-09T02:45:51.159Z,100660.29
2018-09-09T02:50:54.726Z,100660.10
2018-09-09T02:55:58.208Z,100645.77
2018-09-09T03:01:01.793Z,100652.17
2018-09-09T03:06:05.308Z,100647.60
2018-09-09T03:11:13.838Z,100654.17
2018-09-09T03:16:17.363Z,100653.75
2018-09-09T03:21:20.913Z,100636.71
2018-09-09T03:26:24.419Z,100633.14
2018-09-09T03:31:27.941Z,100632.45
2018-09-09T03:36:31.626Z,100624.22
2018-09-09T03:41:35.571Z,100628.98
2018-09-09T03:46:39.388Z,100626.70
2018-09-09T03:51:42.877Z,100616.80
2018-09-09T03:56:46.601Z,100627.75
2018-09-09T04:01:50.162Z,100652.88
2018-09-09T04:06:53.622Z,100663.80
2018-09-09T04:11:57.275Z,100656.63
2018-09-09T04:17:00.789Z,100659.82
2018-09-09T04:22:04.402Z,100657.05
2018-09-09T04:27:07.944Z,100650.70
2018-09-09T04:32:11.485Z,100662.81
2018-09-09T04:37:15.350Z,100671.56
2018-09-09T04:42:18.909Z,100675.38
2018-09-09T04:47:22.463Z,100677.91
2018-09-09T04:52:25.959Z,100673.14
2018-09-09T04:57:29.594Z,100666.19
2018-09-09T05:02:33.329Z,100665.41
2018-09-09T05:07:36.792Z,100681.28
2018-09-09T05:12:40.380Z,100674.72
2018-09-09T05:17:43.822Z,100687.02
2018-09-09T05:22:47.406Z,100683.23
2018-09-09T05:27:50.867Z,100673.33
2018-09-09T05:32:54.352Z,100673.33
2018-09-09T05:37:57.934Z,100697.73
2018-09-09T05:43:01.646Z,100694.95
2018-09-09T05:48:05.218Z,100698.33
2018-09-09T05:53:08.696Z,100690.16
2018-09-09T05:58:12.193Z,100684.41
2018-09-09T06:03:15.669Z,100676.01
2018-09-09T06:08:19.201Z,100660.55
2018-09-09T06:13:24.708Z,100673.05
2018-09-09T06:18:28.420Z,100684.41
2018-09-09T06:23:32.011Z,100709.76
2018-09-09T06:28:36.155Z,100732.63
2018-09-09T06:33:39.730Z,100740.88
2018-09-09T06:38:43.252Z,100731.16
2018-09-09T06:43:46.783Z,100728.77
2018-09-09T06:48:50.395Z,100731.13
2018-09-09T06:53:53.945Z,100725.73
2018-09-09T06:58:57.670Z,100730.34
2018-09-09T07:04:01.427Z,100720.09
2018-09-09T07:09:06.868Z,100728.20
2018-09-09T07:14:10.359Z,100721.66
2018-09-09T07:19:14.102Z,100731.27
2018-09-09T07:24:17.676Z,100735.84
2018-09-09T07:29:21.500Z,100746.30
2018-09-09T07:34:25.248Z,100755.52
2018-09-09T07:39:28.970Z,100754.12
2018-09-09T07:44:32.478Z,100748.76
2018-09-09T07:49:35.989Z,100768.59
2018-09-09T07:54:39.682Z,100762.12
2018-09-09T07:59:43.162Z,100754.92
2018-09-09T08:04:46.649Z,100751.92
2018-09-09T08:09:50.882Z,100744.23
2018-09-09T08:14:54.392Z,100739.88
2018-09-09T08:19:58.029Z,100745.59
2018-09-09T08:25:01.619Z,100749.98
2018-09-09T08:30:05.882Z,100752.06
2018-09-09T08:35:09.405Z,100738.72
2018-09-09T08:40:12.895Z,100735.87
2018-09-09T08:45:16.380Z,100732.27
2018-09-09T08:50:20.106Z,100742.18
2018-09-09T08:55:23.589Z,100749.05
2018-09-09T09:00:27.153Z,100755.34
2018-09-09T09:05:30.695Z,100763.95
2018-09-09T09:10:34.221Z,100758.87
2018-09-09T09:15:37.892Z,100752.02
2018-09-09T09:20:41.595Z,100747.38
2018-09-09T09:25:52.819Z,100751.16
2018-09-09T09:30:56.329Z,100748.91
2018-09-09T09:35:59.850Z,100748.98
2018-09-09T09:41:03.359Z,100748.08
2018-09-09T09:46:07.460Z,100749.76
2018-09-09T09:51:11.453Z,100742.66
2018-09-09T09:56:14.933Z,100740.90
2018-09-09T10:01:18.534Z,100745.31
2018-09-09T10:06:22.038Z,100751.25
2018-09-09T10:11:25.589Z,100745.64
2018-09-09T10:16:29.133Z,100735.05
2018-09-09T10:21:32.691Z,100727.38
2018-09-09T10:26:36.192Z,100721.28
2018-09-09T10:31:39.749Z,100719.89
2018-09-09T10:36:43.261Z,100726.13
2018-09-09T10:41:46.792Z,100723.53
2018-09-09T10:46:50.496Z,100724.92
2018-09-09T10:51:53.981Z,100733.88
2018-09-09T10:56:57.432Z,100724.25
2018-09-09T11:02:01.070Z,100726.20
2018-09-09T11:07:04.833Z,100722.30
2018-09-09T11:12:09.189Z,100724.48
2018-09-09T11:17:12.912Z,100732.56
2018-09-09T11:22:16.844Z,100734.52
2018-09-09T11:27:20.350Z,100733.47
2018-09-09T11:32:24.004Z,100734.18
2018-09-09T11:37:27.471Z,100733.78
2018-09-09T11:42:31.074Z,100731.84
2018-09-09T11:47:35.047Z,100732.50
2018-09-09T11:52:38.576Z,100732.63
2018-09-09T11:57:42.085Z,100729.27
2018-09-09T12:02:45.658Z,100731.21
2018-09-09T12:07:49.157Z,100730.84
2018-09-09T12:12:52.607Z,100735.81
2018-09-09T12:17:56.425Z,100731.04
2018-09-09T12:23:00.113Z,100738.00
2018-09-09T12:28:04.015Z,100728.02
2018-09-09T12:33:07.601Z,100724.20
2018-09-09T12:38:10.866Z,100725.23
2018-09-09T12:43:19.649Z,100730.30
2018-09-09T12:51:40.795Z,100733.16
2018-09-09T12:56:44.084Z,100733.94
2018-09-09T13:01:47.428Z,100726.79
2018-09-09T13:06:50.815Z,100727.34
2018-09-09T13:11:54.104Z,100729.36
2018-09-09T13:16:57.403Z,100723.62
2018-09-09T13:22:24.858Z,100710.14
2018-09-09T13:55:36.818Z,100693.58
2018-09-09T14:00:40.098Z,100687.73
2018-09-09T14:09:34.877Z,100691.48
2018-09-09T14:14:38.238Z,100692.97
2018-09-09T14:19:41.655Z,100690.97
2018-09-09T14:24:44.951Z,100695.94
2018-09-09T14:29:48.370Z,100703.23
2018-09-09T14:34:51.673Z,100698.79
2018-09-09T14:39:54.960Z,100694.70
2018-09-09T14:44:58.243Z,100698.97
2018-09-09T14:50:01.563Z,100703.67
2018-09-09T14:55:05.335Z,100701.73
2018-09-09T15:00:08.651Z,100706.80
2018-09-09T15:05:11.935Z,100707.65
2018-09-09T15:10:15.230Z,100700.50
2018-09-09T15:15:18.514Z,100698.92
2018-09-09T15:20:21.813Z,100700.17
2018-09-09T15:25:25.204Z,100697.65
2018-09-09T15:30:28.487Z,100692.68
2018-09-09T15:35:31.779Z,100699.73
2018-09-09T15:40:35.054Z,100700.34
2018-09-09T15:45:38.469Z,100701.28
2018-09-09T15:50:41.742Z,100698.50
2018-09-09T15:55:45.178Z,100701.55
2018-09-09T16:00:48.467Z,100706.08
2018-09-09T16:05:51.982Z,100706.91
2018-09-09T16:10:56.193Z,100701.06
2018-09-09T16:15:59.534Z,100704.89
2018-09-09T16:21:02.839Z,100707.92
2018-09-09T16:26:06.133Z,100704.70
2018-09-09T16:31:09.442Z,100709.14
2018-09-09T16:36:12.754Z,100710.41
2018-09-09T16:41:16.082Z,100708.41
2018-09-09T16:46:20.519Z,100706.53
2018-09-09T16:51:23.842Z,100708.26
2018-09-09T16:56:27.182Z,100707.59
2018-09-09T17:01:30.749Z,100697.89
2018-09-09T17:06:34.171Z,100706.80
2018-09-09T17:11:37.682Z,100693.63
2018-09-09T17:16:40.992Z,100701.02
2018-09-09T17:21:44.315Z,100696.66
2018-09-09T17:26:47.707Z,100693.98
2018-09-09T17:37:18.691Z,100702.35
2018-09-09T17:42:22.003Z,100700.52
2018-09-09T17:47:25.383Z,100712.71
2018-09-09T17:52:28.738Z,100713.22
2018-09-09T17:57:32.049Z,100719.23
2018-09-09T18:02:35.417Z,100719.95
2018-09-09T18:07:38.826Z,100726.65
2018-09-09T18:12:42.131Z,100722.89
2018-09-09T18:17:45.444Z,100724.89
2018-09-09T18:22:48.803Z,100718.95
2018-09-09T18:27:52.107Z,100722.34
2018-09-09T18:32:55.412Z,100729.41
2018-09-09T18:37:58.730Z,100730.19
2018-09-09T18:43:02.192Z,100727.22
2018-09-09T18:48:05.610Z,100729.22
2018-09-09T18:53:09.095Z,100730.44
2018-09-09T18:58:12.406Z,100724.86
2018-09-09T19:03:15.719Z,100729.65
2018-09-09T19:08:19.039Z,100727.47
2018-09-09T19:13:22.363Z,100732.67
2018-09-09T19:18:25.680Z,100728.34
2018-09-09T19:23:28.976Z,100730.25
2018-09-09T19:28:32.290Z,100724.34
2018-09-09T19:33:35.630Z,100725.41
2018-09-09T19:38:38.934Z,100718.59
2018-09-09T19:43:42.239Z,100723.56
2018-09-09T19:48:45.536Z,100731.04
2018-09-09T19:53:48.842Z,100732.44
2018-09-09T19:58:52.142Z,100732.98
2018-09-09T20:03:55.433Z,100731.59
2018-09-09T20:08:58.742Z,100737.59
2018-09-09T20:14:02.124Z,100745.77
2018-09-09T20:19:05.750Z,100743.67
2018-09-09T20:24:09.099Z,100749.84
2018-09-09T20:29:12.409Z,100754.45
2018-09-09T20:34:15.683Z,100749.99
2018-09-09T20:39:18.967Z,100751.98
2018-09-09T20:44:22.260Z,100745.81
2018-09-09T20:49:25.551Z,100743.03
2018-09-09T20:54:28.831Z,100745.97
2018-09-09T20:59:32.118Z,100751.02
2018-09-09T21:04:35.431Z,100749.86
2018-09-09T21:09:38.736Z,100749.66
2018-09-09T21:14:42.023Z,100744.08
2018-09-09T21:19:45.314Z,100746.53
2018-09-09T21:24:48.588Z,100751.55
2018-09-09T21:29:51.995Z,100745.02
2018-09-09T21:34:55.450Z,100759.55
2018-09-09T21:39:58.742Z,100753.88
2018-09-09T21:45:02.044Z,100752.66
2018-09-09T21:50:06.200Z,100756.48
2018-09-09T21:55:09.489Z,100754.30
2018-09-09T22:00:13.630Z,100753.77
2018-09-09T22:05:17.238Z,100749.41
2018-09-09T22:10:20.653Z,100752.37
2018-09-09T22:15:24.059Z,100745.66
2018-09-09T22:20:27.378Z,100743.05
2018-09-09T22:25:30.838Z,100743.48
2018-09-09T22:30:34.342Z,100744.50
2018-09-09T22:35:37.762Z,100753.45
2018-09-09T22:40:41.039Z,100748.94
2018-09-09T22:45:44.439Z,100749.55
2018-09-09T22:50:48.066Z,100751.36
2018-09-09T22:55:51.506Z,100750.39
2018-09-09T23:00:54.837Z,100748.47
2018-09-09T23:05:58.109Z,100742.91
2018-09-09T23:11:01.382Z,100742.91
2018-09-09T23:16:04.662Z,100739.98
2018-09-09T23:21:07.946Z,100749.73
2018-09-09T23:26:11.230Z,100742.77
2018-09-09T23:31:20.817Z,100737.44
2018-09-09T23:36:24.091Z,100738.31
2018-09-09T23:41:27.378Z,100738.14
2018-09-09T23:46:30.662Z,100732.10
2018-09-09T23:51:33.942Z,100740.48
2018-09-09T23:56:37.231Z,100733.78
